Relevés horaires Beauvechain (Belgique)


Relevés horaires à Beauvechain - Vendredi 14 Févr. 2020
Heure UTC1 Température [°C] Vent [km/h] Hum. [%] Pres.4 [hPa] Visi. [Km] Nébu. [octa] Préc.5 [mm] Cond.
2m. Res. Ros. Dir.2 Vit. Moy. Raf.3
23:00 7.5 5.8 3.9 SSO 9.3 -- 16.7 78 1022.3(-1.3/3h) 20 -- -- --
22:00 7.7 5.7 3.6 SSO 11.1 -- 16.7 75 1022.6(-1.1/3h) 20 -- -- --
21:00 7.9 6.3 3.8 SSO 9.3 -- 14.8 75 1023.2(-0.1/3h) 20 -- -- --
20:00 8.0 6.8 4.5 SSO 7.4 -- 9.3 79 1023.7(0.8/3h) 20 -- -- --
19:00 8.0 7.3 4.4 SO 5.6 -- 9.3 78 1023.7(1.3/3h) 20 -- -- --
18:00 8.9 8.3 4.4 SSO 5.6 -- 18.5 73 1023.2(1.1/3h) 20 -- -- --
17:00 9.1 8.1 3.9 SSO 7.4 -- 14.8 70 1022.7(0.6/3h) 20 -- -- --
16:00 9.2 7.5 3.5 SO 11.1 -- 18.5 67 1022.3(0.0/3h) 20 7/8 -- --
15:00 9.1 7.7 3.7 OSO 9.3 -- 16.7 69 1022.1(-0.2/3h) 20 6/8 -- --
14:00 8.8 7 3.4 SO 11.1 -- 16.7 69 1022.2(-0.3/3h) 20 7/8 -- --
13:00 8.3 6.7 2.9 OSO 9.3 -- 14.8 69 1022.5(0.6/3h) 20 7/8 -- --
12:00 8.2 7 3.8 OSO 7.4 -- 13.0 74 1022.3(1.6/3h) 17 7/8 -- --
11:00 7.5 6.2 2.7 OSO 7.4 -- 11.1 72 1022.6(2.4/3h) 20 6/8 -- --
10:00 6.4 5.5 2.6 OSO 5.6 -- 9.3 77 1021.8(2.9/3h) 20 7/8 -- --
09:00 6.1 5.1 2.4 OSO 5.6 -- 13.0 77 1020.8(3.3/3h) 20 7/8 -- --
08:00 5.8 4.8 2.8 OSO 5.6 -- 9.3 81 1020.2(3.9/3h) 20 7/8 -- --
07:00 5.6 4.5 2.8 O 5.6 -- 13.0 82 1018.8(4.0/3h) 20 7/8 -- --
06:00 5.5 3.4 2.8 O 9.3 -- 20.4 83 1017.5(3.9/3h) 20 6/8 0.4/12h
--
05:00 5.4 3.3 2.8 O 9.3 -- 13.0 83 1016.2(3.3/3h) 20 -- -- --
04:00 5.7 3.6 2.8 O 9.3 -- 14.8 82 1014.7(3.5/3h) 20 -- -- --
03:00 5.7 4.1 3.1 O 7.4 -- 20.4 83 1013.5(3.6/3h) 20 -- -- NA
02:00 6.1 3.8 3.4 O 11.1 -- 20.4 83 1012.7(4.3/3h) 20 -- -- NA
01:00 6.0 3.6 4.6 O 11.1 -- 20.4 91 1011.2(4.9/3h) 7 -- -- Il y a de la pluie faible et continue à la station au moment de l'observation
00:00 6.7 4.8 5.0 O 9.3 -- 24.1 89 1009.7(5.5/3h) 8 -- 0.2/6h
Il y a de la pluie faible et continue à la station au moment de l'observation

1 Coordinated Universal Time. Actuellement il est 10:00 locale et 08:00 UTC.

2 Le vent souffle depuis la direction indiquée vers la direction oposée.

3 Les rafales max. sont disponible 40 min après l'heure du relevé.

4 Pour les stations d'altitude (plus de 600m) le géopotentiel du niveau le plus proche de la pression obligatoire est indiqué.

5 Les stations disposant d'un diffuseur peuvent indiquer "trace". Cela signifie que des précipitations ont touchés le sol mais que la quantité est inférieure à 0.1 mm.

Récapitulatif de la journée
Température [°C] Vent [km/h] Ensoleillement4 [h] Precipitations totale5 [mm] Pression [Hpa]
Min1 Max.2 Moy.3 Max. Min Max.
5.3 9.3 0 24.1 0 h 0 min 0 1009.7 1023.7

1 Température minimale relevée entre 18:00 UTC la veille et 18:00 UTC le jour donné.

2 Température maximale relevée entre 06:00 UTC le jour donné et 06:00 UTC le lendemain.

3 Vent moyen de la journée basé sur les relevés horaires.

4 Ensoleillement en heures relevé entre 06:00 UTC la veille et 06:00 UTC le jour donné.

5 Précipitations totales tombées entre 06:00 UTC la jour donné et 06:00 UTC le lendemain.

Graphiques horaires